sensor_id;sensor_type;location;lat;lon;timestamp;temperature;humidity
51661;DHT22;37741;49.748;8.490;2023-05-15T00:00:38;19.20;58.30
51661;DHT22;37741;49.748;8.490;2023-05-15T00:03:04;19.10;58.40
51661;DHT22;37741;49.748;8.490;2023-05-15T00:05:30;19.10;58.60
51661;DHT22;37741;49.748;8.490;2023-05-15T00:07:55;19.10;58.70
51661;DHT22;37741;49.748;8.490;2023-05-15T00:10:21;19.10;58.80
51661;DHT22;37741;49.748;8.490;2023-05-15T00:12:47;19.00;58.80
51661;DHT22;37741;49.748;8.490;2023-05-15T00:15:12;19.00;59.00
51661;DHT22;37741;49.748;8.490;2023-05-15T00:17:38;18.90;59.00
51661;DHT22;37741;49.748;8.490;2023-05-15T00:20:04;18.90;59.10
51661;DHT22;37741;49.748;8.490;2023-05-15T00:22:31;18.90;59.20
51661;DHT22;37741;49.748;8.490;2023-05-15T00:24:57;18.90;59.30
51661;DHT22;37741;49.748;8.490;2023-05-15T00:27:24;18.80;59.30
51661;DHT22;37741;49.748;8.490;2023-05-15T00:29:50;18.80;59.40
51661;DHT22;37741;49.748;8.490;2023-05-15T00:32:16;18.80;59.50
51661;DHT22;37741;49.748;8.490;2023-05-15T00:34:42;18.70;59.60
51661;DHT22;37741;49.748;8.490;2023-05-15T00:37:07;18.70;59.70
51661;DHT22;37741;49.748;8.490;2023-05-15T00:39:33;18.70;59.80
51661;DHT22;37741;49.748;8.490;2023-05-15T00:41:59;18.60;59.80
51661;DHT22;37741;49.748;8.490;2023-05-15T00:44:25;18.60;59.90
51661;DHT22;37741;49.748;8.490;2023-05-15T00:46:52;18.60;60.00
51661;DHT22;37741;49.748;8.490;2023-05-15T00:49:20;18.50;60.10
51661;DHT22;37741;49.748;8.490;2023-05-15T00:51:46;18.50;60.20
51661;DHT22;37741;49.748;8.490;2023-05-15T00:54:12;18.50;60.30
51661;DHT22;37741;49.748;8.490;2023-05-15T00:56:38;18.40;60.20
51661;DHT22;37741;49.748;8.490;2023-05-15T00:59:05;18.40;60.30
51661;DHT22;37741;49.748;8.490;2023-05-15T01:01:32;18.40;60.40
51661;DHT22;37741;49.748;8.490;2023-05-15T01:04:02;18.30;60.50
51661;DHT22;37741;49.748;8.490;2023-05-15T01:06:29;18.30;60.50
51661;DHT22;37741;49.748;8.490;2023-05-15T01:08:56;18.30;60.70
51661;DHT22;37741;49.748;8.490;2023-05-15T01:11:24;18.20;60.60
51661;DHT22;37741;49.748;8.490;2023-05-15T01:13:51;18.20;60.80
51661;DHT22;37741;49.748;8.490;2023-05-15T01:16:17;18.20;60.80
51661;DHT22;37741;49.748;8.490;2023-05-15T01:18:45;18.10;60.90
51661;DHT22;37741;49.748;8.490;2023-05-15T01:35:30;17.90;61.40
51661;DHT22;37741;49.748;8.490;2023-05-15T01:40:40;17.90;61.50
51661;DHT22;37741;49.748;8.490;2023-05-15T01:43:14;17.80;61.70
51661;DHT22;37741;49.748;8.490;2023-05-15T01:45:43;17.80;61.80
51661;DHT22;37741;49.748;8.490;2023-05-15T01:48:11;17.80;62.10
51661;DHT22;37741;49.748;8.490;2023-05-15T01:50:38;17.70;62.00
51661;DHT22;37741;49.748;8.490;2023-05-15T01:53:06;17.70;62.00
51661;DHT22;37741;49.748;8.490;2023-05-15T01:55:33;17.70;62.20
51661;DHT22;37741;49.748;8.490;2023-05-15T01:58:00;17.60;62.20
51661;DHT22;37741;49.748;8.490;2023-05-15T02:00:27;17.60;62.30
51661;DHT22;37741;49.748;8.490;2023-05-15T02:02:55;17.60;62.30
51661;DHT22;37741;49.748;8.490;2023-05-15T02:05:22;17.50;62.30
51661;DHT22;37741;49.748;8.490;2023-05-15T02:07:48;17.50;62.50
51661;DHT22;37741;49.748;8.490;2023-05-15T02:10:16;17.50;62.60
51661;DHT22;37741;49.748;8.490;2023-05-15T02:12:43;17.50;62.70
51661;DHT22;37741;49.748;8.490;2023-05-15T02:15:09;17.40;62.70
51661;DHT22;37741;49.748;8.490;2023-05-15T02:17:36;17.40;62.80
51661;DHT22;37741;49.748;8.490;2023-05-15T02:20:02;17.40;62.90
51661;DHT22;37741;49.748;8.490;2023-05-15T02:22:30;17.30;62.90
51661;DHT22;37741;49.748;8.490;2023-05-15T02:24:56;17.30;63.10
51661;DHT22;37741;49.748;8.490;2023-05-15T02:27:25;17.30;63.10
51661;DHT22;37741;49.748;8.490;2023-05-15T02:35:39;17.20;63.40
51661;DHT22;37741;49.748;8.490;2023-05-15T02:38:10;17.20;63.60
51661;DHT22;37741;49.748;8.490;2023-05-15T02:40:38;17.10;63.60
51661;DHT22;37741;49.748;8.490;2023-05-15T02:43:04;17.10;63.60
51661;DHT22;37741;49.748;8.490;2023-05-15T02:45:31;17.10;63.70
51661;DHT22;37741;49.748;8.490;2023-05-15T02:47:58;17.00;63.70
51661;DHT22;37741;49.748;8.490;2023-05-15T02:50:25;17.00;63.80
51661;DHT22;37741;49.748;8.490;2023-05-15T02:52:50;17.00;63.80
51661;DHT22;37741;49.748;8.490;2023-05-15T02:55:25;17.00;63.80
51661;DHT22;37741;49.748;8.490;2023-05-15T02:57:51;16.90;63.70
51661;DHT22;37741;49.748;8.490;2023-05-15T03:00:16;16.90;63.70
51661;DHT22;37741;49.748;8.490;2023-05-15T03:02:42;16.90;63.70
51661;DHT22;37741;49.748;8.490;2023-05-15T03:05:08;16.90;63.70
51661;DHT22;37741;49.748;8.490;2023-05-15T03:07:34;16.80;63.60
51661;DHT22;37741;49.748;8.490;2023-05-15T03:10:00;16.80;63.70
51661;DHT22;37741;49.748;8.490;2023-05-15T03:12:25;16.80;63.70
51661;DHT22;37741;49.748;8.490;2023-05-15T03:14:51;16.70;63.70
51661;DHT22;37741;49.748;8.490;2023-05-15T03:17:16;16.70;63.80
51661;DHT22;37741;49.748;8.490;2023-05-15T03:19:42;16.70;63.80
51661;DHT22;37741;49.748;8.490;2023-05-15T03:22:07;16.60;63.80
51661;DHT22;37741;49.748;8.490;2023-05-15T03:24:33;16.60;63.90
51661;DHT22;37741;49.748;8.490;2023-05-15T03:26:59;16.60;63.90
51661;DHT22;37741;49.748;8.490;2023-05-15T03:29:24;16.50;64.00
51661;DHT22;37741;49.748;8.490;2023-05-15T03:31:50;16.50;64.00
51661;DHT22;37741;49.748;8.490;2023-05-15T03:34:15;16.50;64.20
51661;DHT22;37741;49.748;8.490;2023-05-15T03:36:41;16.40;64.10
51661;DHT22;37741;49.748;8.490;2023-05-15T03:39:07;16.40;64.20
51661;DHT22;37741;49.748;8.490;2023-05-15T03:41:33;16.40;64.30
51661;DHT22;37741;49.748;8.490;2023-05-15T03:43:58;16.40;64.40
51661;DHT22;37741;49.748;8.490;2023-05-15T03:46:24;16.40;64.50
51661;DHT22;37741;49.748;8.490;2023-05-15T03:48:50;16.30;64.50
51661;DHT22;37741;49.748;8.490;2023-05-15T03:51:15;16.30;64.60
51661;DHT22;37741;49.748;8.490;2023-05-15T03:53:41;16.30;65.20
51661;DHT22;37741;49.748;8.490;2023-05-15T03:56:06;16.20;64.60
51661;DHT22;37741;49.748;8.490;2023-05-15T03:58:32;16.20;64.70
51661;DHT22;37741;49.748;8.490;2023-05-15T04:00:57;16.20;64.70
51661;DHT22;37741;49.748;8.490;2023-05-15T04:03:23;16.20;64.80
51661;DHT22;37741;49.748;8.490;2023-05-15T04:05:49;16.20;64.90
51661;DHT22;37741;49.748;8.490;2023-05-15T04:08:16;16.10;64.90
51661;DHT22;37741;49.748;8.490;2023-05-15T04:10:41;16.10;65.00
51661;DHT22;37741;49.748;8.490;2023-05-15T04:13:07;16.00;64.90
51661;DHT22;37741;49.748;8.490;2023-05-15T04:15:34;16.00;64.90
51661;DHT22;37741;49.748;8.490;2023-05-15T04:17:59;16.00;64.90
51661;DHT22;37741;49.748;8.490;2023-05-15T04:20:25;15.90;64.90
51661;DHT22;37741;49.748;8.490;2023-05-15T04:22:51;15.90;64.90
51661;DHT22;37741;49.748;8.490;2023-05-15T04:25:17;15.90;64.90
51661;DHT22;37741;49.748;8.490;2023-05-15T04:27:43;15.90;65.00
51661;DHT22;37741;49.748;8.490;2023-05-15T04:30:09;15.90;65.00
51661;DHT22;37741;49.748;8.490;2023-05-15T04:32:37;15.90;64.90
51661;DHT22;37741;49.748;8.490;2023-05-15T04:35:04;15.80;64.90
51661;DHT22;37741;49.748;8.490;2023-05-15T04:37:31;15.80;65.00
51661;DHT22;37741;49.748;8.490;2023-05-15T04:39:56;15.80;65.10
51661;DHT22;37741;49.748;8.490;2023-05-15T04:42:22;15.70;65.10
51661;DHT22;37741;49.748;8.490;2023-05-15T04:44:51;15.70;65.20
51661;DHT22;37741;49.748;8.490;2023-05-15T04:47:17;15.70;65.30
51661;DHT22;37741;49.748;8.490;2023-05-15T04:49:43;15.70;65.30
51661;DHT22;37741;49.748;8.490;2023-05-15T04:52:09;15.60;65.40
51661;DHT22;37741;49.748;8.490;2023-05-15T04:54:34;15.60;65.50
51661;DHT22;37741;49.748;8.490;2023-05-15T04:57:03;15.60;66.10
51661;DHT22;37741;49.748;8.490;2023-05-15T04:59:30;15.60;65.70
51661;DHT22;37741;49.748;8.490;2023-05-15T05:01:56;15.60;65.70
51661;DHT22;37741;49.748;8.490;2023-05-15T05:04:22;15.60;65.80
51661;DHT22;37741;49.748;8.490;2023-05-15T05:06:47;15.60;65.90
51661;DHT22;37741;49.748;8.490;2023-05-15T05:09:13;15.60;65.90
51661;DHT22;37741;49.748;8.490;2023-05-15T05:11:39;15.50;65.90
51661;DHT22;37741;49.748;8.490;2023-05-15T05:14:11;15.50;66.10
51661;DHT22;37741;49.748;8.490;2023-05-15T05:16:37;15.50;66.00
51661;DHT22;37741;49.748;8.490;2023-05-15T05:19:03;15.50;66.10
51661;DHT22;37741;49.748;8.490;2023-05-15T05:21:30;15.50;66.20
51661;DHT22;37741;49.748;8.490;2023-05-15T05:23:55;15.50;66.50
51661;DHT22;37741;49.748;8.490;2023-05-15T05:26:22;15.50;66.50
51661;DHT22;37741;49.748;8.490;2023-05-15T05:28:51;15.50;66.40
51661;DHT22;37741;49.748;8.490;2023-05-15T05:31:17;15.50;66.50
51661;DHT22;37741;49.748;8.490;2023-05-15T05:33:43;15.50;66.50
51661;DHT22;37741;49.748;8.490;2023-05-15T05:36:13;15.40;66.70
51661;DHT22;37741;49.748;8.490;2023-05-15T05:38:39;15.50;66.90
51661;DHT22;37741;49.748;8.490;2023-05-15T05:41:04;15.50;66.90
51661;DHT22;37741;49.748;8.490;2023-05-15T05:43:30;15.40;66.80
51661;DHT22;37741;49.748;8.490;2023-05-15T05:45:56;15.50;66.80
51661;DHT22;37741;49.748;8.490;2023-05-15T05:48:21;15.50;67.00
51661;DHT22;37741;49.748;8.490;2023-05-15T05:50:47;15.50;66.90
51661;DHT22;37741;49.748;8.490;2023-05-15T05:53:12;15.40;66.90
51661;DHT22;37741;49.748;8.490;2023-05-15T05:55:38;15.40;67.20
51661;DHT22;37741;49.748;8.490;2023-05-15T05:58:04;15.50;67.40
51661;DHT22;37741;49.748;8.490;2023-05-15T06:00:29;15.50;67.80
51661;DHT22;37741;49.748;8.490;2023-05-15T06:02:57;15.60;68.20
51661;DHT22;37741;49.748;8.490;2023-05-15T06:05:24;15.60;67.90
51661;DHT22;37741;49.748;8.490;2023-05-15T06:07:53;15.60;67.90
51661;DHT22;37741;49.748;8.490;2023-05-15T06:10:19;15.60;68.10
51661;DHT22;37741;49.748;8.490;2023-05-15T06:12:45;15.60;67.80
51661;DHT22;37741;49.748;8.490;2023-05-15T06:15:12;15.60;67.80
51661;DHT22;37741;49.748;8.490;2023-05-15T06:17:37;15.60;67.70
51661;DHT22;37741;49.748;8.490;2023-05-15T06:20:04;15.60;67.70
51661;DHT22;37741;49.748;8.490;2023-05-15T06:22:35;15.60;67.70
51661;DHT22;37741;49.748;8.490;2023-05-15T06:25:01;15.60;67.70
51661;DHT22;37741;49.748;8.490;2023-05-15T06:27:27;15.50;67.70
51661;DHT22;37741;49.748;8.490;2023-05-15T06:29:53;15.50;67.80
51661;DHT22;37741;49.748;8.490;2023-05-15T06:32:22;15.60;67.80
51661;DHT22;37741;49.748;8.490;2023-05-15T06:34:48;15.60;68.00
51661;DHT22;37741;49.748;8.490;2023-05-15T06:37:13;15.60;68.00
51661;DHT22;37741;49.748;8.490;2023-05-15T06:39:41;15.60;68.00
51661;DHT22;37741;49.748;8.490;2023-05-15T06:42:07;15.60;68.30
51661;DHT22;37741;49.748;8.490;2023-05-15T06:44:32;15.50;68.60
51661;DHT22;37741;49.748;8.490;2023-05-15T06:46:58;15.60;68.50
51661;DHT22;37741;49.748;8.490;2023-05-15T06:49:24;15.70;68.60
51661;DHT22;37741;49.748;8.490;2023-05-15T06:51:56;15.70;68.60
51661;DHT22;37741;49.748;8.490;2023-05-15T06:54:21;15.70;68.70
51661;DHT22;37741;49.748;8.490;2023-05-15T06:56:47;15.80;68.80
51661;DHT22;37741;49.748;8.490;2023-05-15T06:59:12;15.80;68.50
51661;DHT22;37741;49.748;8.490;2023-05-15T07:01:38;15.90;68.50
51661;DHT22;37741;49.748;8.490;2023-05-15T07:04:04;15.90;69.00
51661;DHT22;37741;49.748;8.490;2023-05-15T07:06:30;15.90;69.20
51661;DHT22;37741;49.748;8.490;2023-05-15T07:08:59;15.90;69.10
51661;DHT22;37741;49.748;8.490;2023-05-15T07:11:25;16.00;69.50
51661;DHT22;37741;49.748;8.490;2023-05-15T07:13:54;16.00;69.50
51661;DHT22;37741;49.748;8.490;2023-05-15T07:16:20;16.00;69.60
51661;DHT22;37741;49.748;8.490;2023-05-15T07:18:45;16.00;68.90
51661;DHT22;37741;49.748;8.490;2023-05-15T07:21:11;16.00;68.80
51661;DHT22;37741;49.748;8.490;2023-05-15T07:23:37;16.10;68.80
51661;DHT22;37741;49.748;8.490;2023-05-15T07:26:02;16.00;68.70
51661;DHT22;37741;49.748;8.490;2023-05-15T07:28:28;16.10;69.00
51661;DHT22;37741;49.748;8.490;2023-05-15T07:30:53;16.10;69.40
51661;DHT22;37741;49.748;8.490;2023-05-15T07:33:19;16.10;68.70
51661;DHT22;37741;49.748;8.490;2023-05-15T07:35:45;16.20;69.10
51661;DHT22;37741;49.748;8.490;2023-05-15T07:38:10;16.20;69.00
51661;DHT22;37741;49.748;8.490;2023-05-15T07:40:36;16.20;68.80
51661;DHT22;37741;49.748;8.490;2023-05-15T07:43:02;16.20;69.10
51661;DHT22;37741;49.748;8.490;2023-05-15T07:45:28;16.20;69.60
51661;DHT22;37741;49.748;8.490;2023-05-15T07:47:54;16.20;69.20
51661;DHT22;37741;49.748;8.490;2023-05-15T07:50:20;16.20;69.00
51661;DHT22;37741;49.748;8.490;2023-05-15T07:52:46;16.20;69.10
51661;DHT22;37741;49.748;8.490;2023-05-15T07:55:12;16.20;69.70
51661;DHT22;37741;49.748;8.490;2023-05-15T07:57:38;16.20;69.70
51661;DHT22;37741;49.748;8.490;2023-05-15T08:00:07;16.20;70.20
51661;DHT22;37741;49.748;8.490;2023-05-15T08:02:36;16.20;70.10
51661;DHT22;37741;49.748;8.490;2023-05-15T08:05:02;16.20;70.20
51661;DHT22;37741;49.748;8.490;2023-05-15T08:07:30;16.20;69.80
51661;DHT22;37741;49.748;8.490;2023-05-15T08:09:56;16.20;70.10
51661;DHT22;37741;49.748;8.490;2023-05-15T08:12:21;16.20;70.50
51661;DHT22;37741;49.748;8.490;2023-05-15T08:14:52;16.20;70.90
51661;DHT22;37741;49.748;8.490;2023-05-15T08:17:18;16.30;70.00
51661;DHT22;37741;49.748;8.490;2023-05-15T08:19:45;16.30;70.00
51661;DHT22;37741;49.748;8.490;2023-05-15T08:22:11;16.20;69.80
51661;DHT22;37741;49.748;8.490;2023-05-15T08:24:40;16.30;70.00
51661;DHT22;37741;49.748;8.490;2023-05-15T08:27:07;16.30;70.10
51661;DHT22;37741;49.748;8.490;2023-05-15T08:29:34;16.30;69.80
51661;DHT22;37741;49.748;8.490;2023-05-15T08:32:00;16.30;69.90
51661;DHT22;37741;49.748;8.490;2023-05-15T08:34:26;16.30;70.20
51661;DHT22;37741;49.748;8.490;2023-05-15T08:36:52;16.30;70.30
51661;DHT22;37741;49.748;8.490;2023-05-15T08:39:18;16.30;70.30
51661;DHT22;37741;49.748;8.490;2023-05-15T08:41:51;16.30;70.10
51661;DHT22;37741;49.748;8.490;2023-05-15T08:44:21;16.40;70.30
51661;DHT22;37741;49.748;8.490;2023-05-15T08:46:48;16.40;70.10
51661;DHT22;37741;49.748;8.490;2023-05-15T08:51:58;16.40;70.10
51661;DHT22;37741;49.748;8.490;2023-05-15T08:54:25;16.40;70.40
51661;DHT22;37741;49.748;8.490;2023-05-15T08:56:52;16.50;70.10
51661;DHT22;37741;49.748;8.490;2023-05-15T08:59:17;16.50;70.10
51661;DHT22;37741;49.748;8.490;2023-05-15T09:01:44;16.50;70.40
51661;DHT22;37741;49.748;8.490;2023-05-15T09:04:09;16.50;70.60
51661;DHT22;37741;49.748;8.490;2023-05-15T09:06:36;16.50;70.20
51661;DHT22;37741;49.748;8.490;2023-05-15T09:09:02;16.50;70.10
51661;DHT22;37741;49.748;8.490;2023-05-15T09:11:31;16.50;70.30
51661;DHT22;37741;49.748;8.490;2023-05-15T09:14:00;16.50;70.10
51661;DHT22;37741;49.748;8.490;2023-05-15T09:16:26;16.50;70.10
51661;DHT22;37741;49.748;8.490;2023-05-15T09:18:53;16.50;70.00
51661;DHT22;37741;49.748;8.490;2023-05-15T09:21:23;16.50;70.00
51661;DHT22;37741;49.748;8.490;2023-05-15T09:23:50;16.60;70.10
51661;DHT22;37741;49.748;8.490;2023-05-15T09:26:15;16.60;69.90
51661;DHT22;37741;49.748;8.490;2023-05-15T09:28:41;16.60;70.00
51661;DHT22;37741;49.748;8.490;2023-05-15T09:31:07;16.60;70.20
51661;DHT22;37741;49.748;8.490;2023-05-15T09:33:34;16.60;70.20
51661;DHT22;37741;49.748;8.490;2023-05-15T09:36:01;16.60;70.40
51661;DHT22;37741;49.748;8.490;2023-05-15T09:38:27;16.60;71.10
51661;DHT22;37741;49.748;8.490;2023-05-15T09:41:04;16.70;70.80
51661;DHT22;37741;49.748;8.490;2023-05-15T09:43:37;16.70;70.80
51661;DHT22;37741;49.748;8.490;2023-05-15T09:46:04;16.70;70.70
51661;DHT22;37741;49.748;8.490;2023-05-15T09:48:31;16.70;70.80
51661;DHT22;37741;49.748;8.490;2023-05-15T09:50:56;16.70;70.80
51661;DHT22;37741;49.748;8.490;2023-05-15T09:53:23;16.70;70.90
51661;DHT22;37741;49.748;8.490;2023-05-15T09:55:49;16.80;70.80
51661;DHT22;37741;49.748;8.490;2023-05-15T09:58:16;16.80;70.80
51661;DHT22;37741;49.748;8.490;2023-05-15T10:00:43;16.80;71.20
51661;DHT22;37741;49.748;8.490;2023-05-15T10:03:10;16.80;70.90
51661;DHT22;37741;49.748;8.490;2023-05-15T10:05:36;16.90;70.90
51661;DHT22;37741;49.748;8.490;2023-05-15T10:08:02;16.90;70.60
51661;DHT22;37741;49.748;8.490;2023-05-15T10:10:29;17.00;70.60
51661;DHT22;37741;49.748;8.490;2023-05-15T10:12:56;17.00;70.40
51661;DHT22;37741;49.748;8.490;2023-05-15T10:15:29;17.00;70.20
51661;DHT22;37741;49.748;8.490;2023-05-15T10:17:55;17.00;70.10
51661;DHT22;37741;49.748;8.490;2023-05-15T10:20:23;17.00;69.90
51661;DHT22;37741;49.748;8.490;2023-05-15T10:22:53;17.10;70.10
51661;DHT22;37741;49.748;8.490;2023-05-15T10:25:52;17.10;70.00
51661;DHT22;37741;49.748;8.490;2023-05-15T10:28:20;17.10;69.70
51661;DHT22;37741;49.748;8.490;2023-05-15T10:30:47;17.20;69.70
51661;DHT22;37741;49.748;8.490;2023-05-15T10:33:13;17.20;69.40
51661;DHT22;37741;49.748;8.490;2023-05-15T10:35:39;17.20;69.10
51661;DHT22;37741;49.748;8.490;2023-05-15T10:38:05;17.20;68.60
51661;DHT22;37741;49.748;8.490;2023-05-15T10:40:36;17.30;68.70
51661;DHT22;37741;49.748;8.490;2023-05-15T10:43:02;17.30;68.20
51661;DHT22;37741;49.748;8.490;2023-05-15T10:45:29;17.30;68.20
51661;DHT22;37741;49.748;8.490;2023-05-15T10:47:56;17.40;68.20
51661;DHT22;37741;49.748;8.490;2023-05-15T10:50:22;17.40;68.10
51661;DHT22;37741;49.748;8.490;2023-05-15T10:52:51;17.40;68.20
51661;DHT22;37741;49.748;8.490;2023-05-15T10:55:17;17.50;68.60
51661;DHT22;37741;49.748;8.490;2023-05-15T10:57:50;17.50;68.90
51661;DHT22;37741;49.748;8.490;2023-05-15T11:02:49;17.60;69.50
51661;DHT22;37741;49.748;8.490;2023-05-15T11:05:17;17.60;69.30
51661;DHT22;37741;49.748;8.490;2023-05-15T11:07:43;17.70;69.40
51661;DHT22;37741;49.748;8.490;2023-05-15T11:13:01;17.80;69.00
51661;DHT22;37741;49.748;8.490;2023-05-15T11:15:27;17.80;68.50
51661;DHT22;37741;49.748;8.490;2023-05-15T11:18:06;17.80;68.30
51661;DHT22;37741;49.748;8.490;2023-05-15T11:21:04;17.80;68.00
51661;DHT22;37741;49.748;8.490;2023-05-15T11:23:21;17.90;67.90
51661;DHT22;37741;49.748;8.490;2023-05-15T11:25:55;17.90;67.70
51661;DHT22;37741;49.748;8.490;2023-05-15T11:28:23;18.00;67.20
51661;DHT22;37741;49.748;8.490;2023-05-15T11:30:56;18.00;66.80
51661;DHT22;37741;49.748;8.490;2023-05-15T11:33:23;18.00;65.70
51661;DHT22;37741;49.748;8.490;2023-05-15T11:35:57;18.10;65.20
51661;DHT22;37741;49.748;8.490;2023-05-15T11:38:24;18.20;64.80
51661;DHT22;37741;49.748;8.490;2023-05-15T11:40:50;18.20;65.00
51661;DHT22;37741;49.748;8.490;2023-05-15T11:43:31;18.20;65.10
51661;DHT22;37741;49.748;8.490;2023-05-15T11:46:03;18.30;65.00
51661;DHT22;37741;49.748;8.490;2023-05-15T11:48:40;18.30;64.20
51661;DHT22;37741;49.748;8.490;2023-05-15T11:53:47;18.40;64.60
51661;DHT22;37741;49.748;8.490;2023-05-15T11:56:21;18.50;64.70
51661;DHT22;37741;49.748;8.490;2023-05-15T11:58:48;18.50;64.70
51661;DHT22;37741;49.748;8.490;2023-05-15T12:01:14;18.60;64.80
51661;DHT22;37741;49.748;8.490;2023-05-15T12:03:40;18.60;64.40
51661;DHT22;37741;49.748;8.490;2023-05-15T12:06:06;18.60;64.60
51661;DHT22;37741;49.748;8.490;2023-05-15T12:08:34;18.60;64.60
51661;DHT22;37741;49.748;8.490;2023-05-15T12:11:02;18.60;64.70
51661;DHT22;37741;49.748;8.490;2023-05-15T12:13:29;18.70;64.60
51661;DHT22;37741;49.748;8.490;2023-05-15T12:15:56;18.70;64.50
51661;DHT22;37741;49.748;8.490;2023-05-15T12:18:25;18.70;64.80
51661;DHT22;37741;49.748;8.490;2023-05-15T12:20:52;18.80;65.30
51661;DHT22;37741;49.748;8.490;2023-05-15T12:23:21;18.80;65.90
51661;DHT22;37741;49.748;8.490;2023-05-15T12:25:48;18.80;66.80
51661;DHT22;37741;49.748;8.490;2023-05-15T12:28:15;18.80;67.30
51661;DHT22;37741;49.748;8.490;2023-05-15T12:30:41;18.80;67.50
51661;DHT22;37741;49.748;8.490;2023-05-15T12:33:08;18.80;67.10
51661;DHT22;37741;49.748;8.490;2023-05-15T12:35:36;18.80;67.40
51661;DHT22;37741;49.748;8.490;2023-05-15T12:38:06;18.80;67.50
51661;DHT22;37741;49.748;8.490;2023-05-15T12:40:35;18.80;67.50
51661;DHT22;37741;49.748;8.490;2023-05-15T12:43:06;18.80;67.20
51661;DHT22;37741;49.748;8.490;2023-05-15T12:45:32;18.80;67.40
51661;DHT22;37741;49.748;8.490;2023-05-15T12:48:00;18.90;66.60
51661;DHT22;37741;49.748;8.490;2023-05-15T12:50:26;18.90;66.80
51661;DHT22;37741;49.748;8.490;2023-05-15T12:53:01;19.00;66.60
51661;DHT22;37741;49.748;8.490;2023-05-15T12:55:38;19.00;66.30
51661;DHT22;37741;49.748;8.490;2023-05-15T12:58:06;19.00;66.10
51661;DHT22;37741;49.748;8.490;2023-05-15T13:00:36;19.00;65.90
51661;DHT22;37741;49.748;8.490;2023-05-15T13:03:03;19.00;65.70
51661;DHT22;37741;49.748;8.490;2023-05-15T13:05:32;19.00;65.00
51661;DHT22;37741;49.748;8.490;2023-05-15T13:07:59;19.00;65.50
51661;DHT22;37741;49.748;8.490;2023-05-15T13:10:25;19.00;65.20
51661;DHT22;37741;49.748;8.490;2023-05-15T13:12:52;19.00;64.40
51661;DHT22;37741;49.748;8.490;2023-05-15T13:15:28;19.00;63.80
51661;DHT22;37741;49.748;8.490;2023-05-15T13:17:58;19.10;63.40
51661;DHT22;37741;49.748;8.490;2023-05-15T13:20:24;19.20;63.80
51661;DHT22;37741;49.748;8.490;2023-05-15T13:22:50;19.20;62.70
51661;DHT22;37741;49.748;8.490;2023-05-15T13:25:19;19.30;63.20
51661;DHT22;37741;49.748;8.490;2023-05-15T13:27:46;19.40;63.60
51661;DHT22;37741;49.748;8.490;2023-05-15T13:30:16;19.40;64.00
51661;DHT22;37741;49.748;8.490;2023-05-15T13:32:42;19.50;64.10
51661;DHT22;37741;49.748;8.490;2023-05-15T13:35:09;19.60;63.80
51661;DHT22;37741;49.748;8.490;2023-05-15T13:37:35;19.70;63.00
51661;DHT22;37741;49.748;8.490;2023-05-15T13:40:02;19.70;62.80
51661;DHT22;37741;49.748;8.490;2023-05-15T13:42:31;19.80;62.80
51661;DHT22;37741;49.748;8.490;2023-05-15T13:44:57;19.80;61.80
51661;DHT22;37741;49.748;8.490;2023-05-15T13:47:23;19.80;61.90
51661;DHT22;37741;49.748;8.490;2023-05-15T13:49:48;19.90;61.80
51661;DHT22;37741;49.748;8.490;2023-05-15T13:52:14;19.90;62.70
51661;DHT22;37741;49.748;8.490;2023-05-15T13:54:41;19.80;62.60
51661;DHT22;37741;49.748;8.490;2023-05-15T13:57:06;19.90;58.90
51661;DHT22;37741;49.748;8.490;2023-05-15T13:59:32;19.90;59.70
51661;DHT22;37741;49.748;8.490;2023-05-15T14:01:58;20.00;60.10
51661;DHT22;37741;49.748;8.490;2023-05-15T14:04:23;19.90;60.30
51661;DHT22;37741;49.748;8.490;2023-05-15T14:06:49;19.90;60.40
51661;DHT22;37741;49.748;8.490;2023-05-15T14:09:15;20.00;61.00
51661;DHT22;37741;49.748;8.490;2023-05-15T14:11:41;20.00;61.00
51661;DHT22;37741;49.748;8.490;2023-05-15T14:14:06;20.00;61.10
51661;DHT22;37741;49.748;8.490;2023-05-15T14:16:32;20.00;60.90
51661;DHT22;37741;49.748;8.490;2023-05-15T14:18:58;20.10;60.70
51661;DHT22;37741;49.748;8.490;2023-05-15T14:21:24;20.10;61.20
51661;DHT22;37741;49.748;8.490;2023-05-15T14:23:50;20.10;61.60
51661;DHT22;37741;49.748;8.490;2023-05-15T14:26:16;20.20;60.50
51661;DHT22;37741;49.748;8.490;2023-05-15T14:28:41;20.20;60.30
51661;DHT22;37741;49.748;8.490;2023-05-15T14:31:07;20.30;60.10
51661;DHT22;37741;49.748;8.490;2023-05-15T14:33:33;20.40;60.50
51661;DHT22;37741;49.748;8.490;2023-05-15T14:35:58;20.40;60.30
51661;DHT22;37741;49.748;8.490;2023-05-15T14:38:25;20.50;59.80
51661;DHT22;37741;49.748;8.490;2023-05-15T14:40:51;20.50;59.70
51661;DHT22;37741;49.748;8.490;2023-05-15T14:43:16;20.50;60.40
51661;DHT22;37741;49.748;8.490;2023-05-15T14:45:42;20.60;59.50
51661;DHT22;37741;49.748;8.490;2023-05-15T14:48:07;20.70;60.10
51661;DHT22;37741;49.748;8.490;2023-05-15T14:50:34;20.70;59.60
51661;DHT22;37741;49.748;8.490;2023-05-15T14:52:59;20.80;59.30
51661;DHT22;37741;49.748;8.490;2023-05-15T14:55:25;20.90;59.40
51661;DHT22;37741;49.748;8.490;2023-05-15T14:57:50;21.00;58.90
51661;DHT22;37741;49.748;8.490;2023-05-15T15:00:16;21.00;58.70
51661;DHT22;37741;49.748;8.490;2023-05-15T15:02:42;21.10;59.20
51661;DHT22;37741;49.748;8.490;2023-05-15T15:05:11;21.10;58.60
51661;DHT22;37741;49.748;8.490;2023-05-15T15:08:00;21.20;59.00
51661;DHT22;37741;49.748;8.490;2023-05-15T15:10:26;21.20;58.60
51661;DHT22;37741;49.748;8.490;2023-05-15T15:12:51;21.30;58.40
51661;DHT22;37741;49.748;8.490;2023-05-15T15:15:18;21.30;58.40
51661;DHT22;37741;49.748;8.490;2023-05-15T15:17:44;21.40;58.50
51661;DHT22;37741;49.748;8.490;2023-05-15T15:20:10;21.40;58.60
51661;DHT22;37741;49.748;8.490;2023-05-15T15:22:39;21.40;58.10
51661;DHT22;37741;49.748;8.490;2023-05-15T15:25:05;21.50;58.50
51661;DHT22;37741;49.748;8.490;2023-05-15T15:27:32;21.50;57.60
51661;DHT22;37741;49.748;8.490;2023-05-15T15:29:58;21.50;56.90
51661;DHT22;37741;49.748;8.490;2023-05-15T15:32:26;21.60;57.60
51661;DHT22;37741;49.748;8.490;2023-05-15T15:34:54;21.60;57.60
51661;DHT22;37741;49.748;8.490;2023-05-15T15:37:20;21.80;57.50
51661;DHT22;37741;49.748;8.490;2023-05-15T15:39:46;21.80;56.20
51661;DHT22;37741;49.748;8.490;2023-05-15T15:42:14;21.90;55.70
51661;DHT22;37741;49.748;8.490;2023-05-15T15:44:41;21.90;55.50
51661;DHT22;37741;49.748;8.490;2023-05-15T15:47:08;21.90;54.00
51661;DHT22;37741;49.748;8.490;2023-05-15T15:49:37;21.90;54.30
51661;DHT22;37741;49.748;8.490;2023-05-15T15:52:05;21.90;54.00
51661;DHT22;37741;49.748;8.490;2023-05-15T15:54:37;21.90;53.60
51661;DHT22;37741;49.748;8.490;2023-05-15T15:57:03;21.90;54.20
51661;DHT22;37741;49.748;8.490;2023-05-15T15:59:29;21.90;55.00
51661;DHT22;37741;49.748;8.490;2023-05-15T16:01:54;22.00;54.50